createdAt,value
2022-10-05T00:01:53.781Z,98704.34
2022-10-05T00:04:26.344Z,98707.75
2022-10-05T00:07:06.536Z,98714.88
2022-10-05T00:09:37.256Z,98684.69
2022-10-05T00:12:17.603Z,98708.84
2022-10-05T00:14:47.423Z,98678.19
2022-10-05T00:17:24.305Z,98702.22
2022-10-05T00:19:55.101Z,98689.81
2022-10-05T00:22:31.938Z,98695.09
2022-10-05T00:25:26.204Z,98691.25
2022-10-05T00:28:01.426Z,98685.78
2022-10-05T00:30:35.465Z,98663.75
2022-10-05T00:33:06.462Z,98677.13
2022-10-05T00:35:48.036Z,98671.50
2022-10-05T00:38:20.629Z,98704.88
2022-10-05T00:40:54.931Z,98699.09
2022-10-05T00:44:44.448Z,98704.97
2022-10-05T00:47:46.961Z,98711.03
2022-10-05T00:51:02.177Z,98700.34
2022-10-05T00:54:18.513Z,98690.50
2022-10-05T00:57:40.140Z,98694.78
2022-10-05T01:00:13.548Z,98678.50
2022-10-05T01:03:04.806Z,98676.78
2022-10-05T01:06:01.688Z,98688.97
2022-10-05T01:08:51.236Z,98687.00
2022-10-05T01:11:30.891Z,98663.13
2022-10-05T01:14:20.054Z,98659.84
2022-10-05T01:17:13.828Z,98669.06
2022-10-05T01:20:42.022Z,98686.31
2022-10-05T01:23:41.715Z,98663.03
2022-10-05T01:26:37.106Z,98686.38
2022-10-05T01:29:32.451Z,98688.44
2022-10-05T01:32:30.271Z,98663.06
2022-10-05T01:35:55.740Z,98659.63
2022-10-05T01:38:37.845Z,98670.72
2022-10-05T01:41:31.791Z,98678.69
2022-10-05T01:44:15.783Z,98660.34
2022-10-05T01:47:04.894Z,98675.03
2022-10-05T01:50:03.840Z,98686.81
2022-10-05T01:53:10.991Z,98694.06
2022-10-05T01:56:25.576Z,98695.50
2022-10-05T01:59:06.947Z,98681.56
2022-10-05T02:01:55.187Z,98686.97
2022-10-05T02:07:44.511Z,98682.59
2022-10-05T02:10:25.957Z,98693.53
2022-10-05T02:13:04.502Z,98700.22
2022-10-05T02:15:42.245Z,98677.56
2022-10-05T02:18:28.309Z,98672.31
2022-10-05T02:21:02.207Z,98655.53
2022-10-05T02:23:34.511Z,98645.72
2022-10-05T02:26:01.991Z,98666.75
2022-10-05T02:28:39.855Z,98664.47
2022-10-05T02:31:38.048Z,98651.03
2022-10-05T02:34:23.624Z,98657.31
2022-10-05T02:37:36.081Z,98631.97
2022-10-05T02:40:45.311Z,98650.28
2022-10-05T02:43:23.830Z,98663.66
2022-10-05T02:46:36.752Z,98664.84
2022-10-05T02:49:58.475Z,98645.94
2022-10-05T02:52:59.456Z,98651.50
2022-10-05T02:56:14.527Z,98653.16
2022-10-05T02:58:57.747Z,98626.63
2022-10-05T03:01:55.342Z,98659.94
2022-10-05T03:04:54.017Z,98656.81
2022-10-05T03:08:18.828Z,98642.09
2022-10-05T03:11:19.235Z,98648.72
2022-10-05T03:14:09.506Z,98628.38
2022-10-05T03:17:12.422Z,98630.53
2022-10-05T03:20:00.455Z,98636.34
2022-10-05T03:22:46.276Z,98640.91
2022-10-05T03:25:28.567Z,98638.16
2022-10-05T03:28:35.241Z,98636.81
2022-10-05T03:31:39.519Z,98630.56
2022-10-05T03:34:31.512Z,98624.78
2022-10-05T03:37:29.857Z,98628.22
2022-10-05T03:41:03.633Z,98629.47
2022-10-05T03:43:49.712Z,98621.50
2022-10-05T03:46:25.913Z,98620.94
2022-10-05T03:49:31.812Z,98614.41
2022-10-05T03:52:22.219Z,98593.25
2022-10-05T03:55:15.035Z,98585.78
2022-10-05T03:57:46.622Z,98607.28
2022-10-05T04:00:23.079Z,98602.41
2022-10-05T04:02:57.158Z,98611.84
2022-10-05T04:05:52.641Z,98600.41
2022-10-05T04:08:48.509Z,98600.56
2022-10-05T04:11:36.966Z,98587.34
2022-10-05T04:14:16.603Z,98614.72
2022-10-05T04:16:57.836Z,98612.09
2022-10-05T04:20:02.012Z,98611.13
2022-10-05T04:22:42.733Z,98608.22
2022-10-05T04:25:22.807Z,98622.25
2022-10-05T04:28:11.993Z,98597.13
2022-10-05T04:30:45.717Z,98584.19
2022-10-05T04:33:15.134Z,98610.25
2022-10-05T04:36:14.439Z,98622.09
2022-10-05T04:38:44.751Z,98612.94
2022-10-05T04:42:05.095Z,98617.88
2022-10-05T04:44:45.944Z,98645.94
2022-10-05T04:47:39.829Z,98646.22
2022-10-05T04:50:31.143Z,98623.16
2022-10-05T04:53:24.846Z,98643.63
2022-10-05T04:56:00.397Z,98630.34
2022-10-05T04:59:31.733Z,98627.56
2022-10-05T05:02:20.945Z,98601.88
2022-10-05T05:05:18.264Z,98624.50
2022-10-05T05:08:15.706Z,98616.81
2022-10-05T05:11:24.660Z,98618.66
2022-10-05T05:14:48.853Z,98611.63
2022-10-05T05:17:31.325Z,98624.94
2022-10-05T05:20:42.011Z,98620.78
2022-10-05T05:23:32.624Z,98629.78
2022-10-05T05:26:38.775Z,98627.84
2022-10-05T05:29:41.584Z,98630.16
2022-10-05T05:33:01.766Z,98623.47
2022-10-05T05:36:04.520Z,98638.22
2022-10-05T05:38:41.887Z,98611.34
2022-10-05T05:41:34.516Z,98648.75
2022-10-05T05:44:25.002Z,98651.00
2022-10-05T05:47:05.480Z,98636.69
2022-10-05T05:50:16.779Z,98647.59
2022-10-05T05:53:01.833Z,98647.06
2022-10-05T05:55:42.894Z,98632.38
2022-10-05T05:58:29.521Z,98657.53
2022-10-05T06:01:25.126Z,98651.00
2022-10-05T06:04:24.870Z,98648.25
2022-10-05T06:06:56.343Z,98644.34
2022-10-05T06:09:27.772Z,98646.63
2022-10-05T06:12:04.309Z,98667.50
2022-10-05T06:14:50.357Z,98659.00
2022-10-05T06:18:00.350Z,98655.28
2022-10-05T06:20:51.129Z,98684.38
2022-10-05T06:23:49.644Z,98672.00
2022-10-05T06:27:06.805Z,98695.41
2022-10-05T06:29:53.347Z,98686.53
2022-10-05T06:32:55.022Z,98706.28
2022-10-05T06:35:54.023Z,98702.50
2022-10-05T06:39:23.437Z,98681.50
2022-10-05T06:42:06.247Z,98695.53
2022-10-05T06:45:00.412Z,98699.25
2022-10-05T06:48:00.478Z,98688.94
2022-10-05T06:50:42.948Z,98708.84
2022-10-05T06:53:53.068Z,98704.88
2022-10-05T06:56:47.402Z,98709.94
2022-10-05T06:59:32.386Z,98700.56
2022-10-05T07:02:29.867Z,98704.16
2022-10-05T07:05:30.288Z,98705.44
2022-10-05T07:08:04.213Z,98688.72
2022-10-05T07:10:54.871Z,98713.56
2022-10-05T07:13:53.799Z,98718.72
2022-10-05T07:16:43.762Z,98712.09
2022-10-05T07:19:36.970Z,98701.22
2022-10-05T07:22:39.201Z,98717.19
2022-10-05T07:25:48.169Z,98713.34
2022-10-05T07:28:37.540Z,98706.81
2022-10-05T07:31:38.928Z,98722.41
2022-10-05T07:34:30.217Z,98727.56
2022-10-05T07:37:37.817Z,98743.13
2022-10-05T07:40:40.199Z,98723.69
2022-10-05T07:43:57.647Z,98716.78
2022-10-05T07:46:54.209Z,98728.47
2022-10-05T07:49:59.680Z,98729.09
2022-10-05T07:52:46.012Z,98723.41
2022-10-05T07:55:29.961Z,98721.78
2022-10-05T07:58:30.118Z,98740.06
2022-10-05T08:01:08.657Z,98730.97
2022-10-05T08:04:41.409Z,98745.44
2022-10-05T08:07:18.787Z,98716.72
2022-10-05T08:10:18.221Z,98734.19
2022-10-05T08:13:24.063Z,98733.88
2022-10-05T08:15:59.911Z,98710.34
2022-10-05T08:19:08.829Z,98730.69
2022-10-05T08:22:04.685Z,98721.41
2022-10-05T08:24:51.698Z,98710.47
2022-10-05T08:28:08.710Z,98705.22
2022-10-05T08:30:57.406Z,98714.16
2022-10-05T08:33:59.596Z,98728.34
2022-10-05T08:37:06.459Z,98726.94
2022-10-05T08:39:55.732Z,98726.28
2022-10-05T08:43:02.924Z,98729.94
2022-10-05T08:46:03.934Z,98720.75
2022-10-05T08:49:08.798Z,98727.19
2022-10-05T08:52:26.136Z,98716.00
2022-10-05T08:56:06.073Z,98718.41
2022-10-05T08:59:19.847Z,98697.34
2022-10-05T09:02:51.916Z,98702.75
2022-10-05T09:05:44.866Z,98711.09
2022-10-05T09:09:05.330Z,98711.25
2022-10-05T09:12:05.420Z,98707.31
2022-10-05T09:15:27.479Z,98693.03
2022-10-05T09:18:24.937Z,98704.34
2022-10-05T09:22:06.136Z,98708.47
2022-10-05T09:24:57.994Z,98683.94
2022-10-05T09:28:07.106Z,98688.06
2022-10-05T09:31:38.388Z,98702.75
2022-10-05T09:34:57.773Z,98699.66
2022-10-05T09:38:09.099Z,98697.09
2022-10-05T09:41:08.374Z,98699.69
2022-10-05T09:44:24.180Z,98681.09
2022-10-05T09:47:38.694Z,98698.94
2022-10-05T09:50:27.283Z,98687.94
2022-10-05T09:54:18.063Z,98693.09
2022-10-05T09:57:19.443Z,98682.66
2022-10-05T10:01:09.574Z,98690.38
2022-10-05T10:04:27.191Z,98679.56
2022-10-05T10:07:51.230Z,98658.34
2022-10-05T10:10:56.782Z,98663.16
2022-10-05T10:14:00.020Z,98676.81
2022-10-05T10:16:41.916Z,98682.59
2022-10-05T10:20:14.280Z,98666.16
2022-10-05T10:23:19.009Z,98662.22
2022-10-05T10:26:37.203Z,98678.59
2022-10-05T10:29:43.585Z,98682.28
2022-10-05T10:33:15.857Z,98672.50
2022-10-05T10:36:18.162Z,98664.66
2022-10-05T10:39:32.349Z,98663.19
2022-10-05T10:42:26.464Z,98664.25
2022-10-05T10:45:19.121Z,98642.09
2022-10-05T10:48:12.089Z,98652.78
2022-10-05T10:51:00.556Z,98663.25
2022-10-05T10:54:24.394Z,98649.88
2022-10-05T10:57:18.720Z,98658.63
2022-10-05T11:00:28.625Z,98663.44
2022-10-05T11:03:41.208Z,98660.69
2022-10-05T11:06:38.667Z,98644.97
2022-10-05T11:10:09.229Z,98638.72
2022-10-05T11:12:45.506Z,98638.34
2022-10-05T11:20:03.592Z,98613.31
2022-10-05T11:24:02.007Z,98635.59
2022-10-05T11:26:56.577Z,98626.84
2022-10-05T11:30:18.542Z,98608.47
2022-10-05T11:33:37.161Z,98616.06
2022-10-05T11:36:40.608Z,98617.59
2022-10-05T11:39:53.153Z,98607.94
2022-10-05T11:43:12.063Z,98610.75
2022-10-05T11:46:16.121Z,98598.75
2022-10-05T11:49:47.046Z,98610.50
2022-10-05T11:56:31.848Z,98594.72
2022-10-05T11:59:34.564Z,98601.38
2022-10-05T12:02:53.649Z,98582.16
2022-10-05T12:06:11.557Z,98589.56
2022-10-05T12:09:03.909Z,98584.72
2022-10-05T12:12:14.493Z,98583.91
2022-10-05T12:14:55.169Z,98574.47
2022-10-05T12:18:01.003Z,98569.09
2022-10-05T12:20:47.099Z,98570.06
2022-10-05T12:23:46.739Z,98566.75
2022-10-05T12:26:40.923Z,98574.41
2022-10-05T12:30:07.630Z,98575.16
2022-10-05T12:33:07.754Z,98566.69
2022-10-05T12:36:05.896Z,98589.81
2022-10-05T12:39:08.205Z,98599.84
2022-10-05T12:42:25.990Z,98587.78
2022-10-05T12:45:16.932Z,98593.97
2022-10-05T12:48:21.273Z,98590.19
2022-10-05T12:51:07.839Z,98575.16
2022-10-05T12:53:55.571Z,98579.13
2022-10-05T12:56:45.411Z,98591.75
2022-10-05T12:59:59.201Z,98561.44
2022-10-05T13:02:46.565Z,98576.66
2022-10-05T13:05:29.888Z,98590.25
2022-10-05T13:09:11.487Z,98573.16
2022-10-05T13:12:01.174Z,98563.75
2022-10-05T13:14:58.304Z,98582.28
2022-10-05T13:19:29.658Z,98561.13
2022-10-05T13:21:14.912Z,98557.72
2022-10-05T13:24:33.179Z,98560.00
2022-10-05T13:27:45.070Z,98554.31
2022-10-05T13:30:25.151Z,98563.41
2022-10-05T13:33:58.398Z,98540.59
2022-10-05T13:37:10.202Z,98555.72
2022-10-05T13:40:15.906Z,98548.84
2022-10-05T13:43:46.626Z,98548.91
2022-10-05T13:46:59.601Z,98542.97
2022-10-05T13:50:11.334Z,98557.44
2022-10-05T13:52:58.490Z,98552.63
2022-10-05T13:56:06.707Z,98540.53
2022-10-05T13:58:50.105Z,98545.84
2022-10-05T14:01:34.848Z,98552.91
2022-10-05T14:04:27.232Z,98535.03
2022-10-05T14:06:58.783Z,98529.44
2022-10-05T14:12:23.602Z,98524.84
2022-10-05T14:14:58.663Z,98541.16
2022-10-05T14:17:39.858Z,98538.72
2022-10-05T14:20:41.559Z,98533.13
2022-10-05T14:23:24.698Z,98528.84
2022-10-05T14:26:06.175Z,98515.91
2022-10-05T14:28:38.510Z,98525.22
2022-10-05T14:31:55.138Z,98524.28
2022-10-05T14:34:39.675Z,98522.03
2022-10-05T14:37:25.234Z,98507.94
2022-10-05T14:40:36.256Z,98522.13
2022-10-05T14:43:16.810Z,98509.31
2022-10-05T14:49:36.058Z,98504.28
2022-10-05T14:52:28.694Z,98503.91
2022-10-05T14:55:24.595Z,98506.28
2022-10-05T14:59:28.429Z,98484.38
2022-10-05T15:01:58.594Z,98479.31
2022-10-05T15:05:46.943Z,98498.25
2022-10-05T15:08:31.677Z,98489.78
2022-10-05T15:11:09.243Z,98496.13
2022-10-05T15:13:48.663Z,98470.41
2022-10-05T15:16:44.440Z,98491.56
2022-10-05T15:19:43.898Z,98485.81
2022-10-05T15:22:51.673Z,98489.81
2022-10-05T15:25:55.676Z,98489.28
2022-10-05T15:29:39.835Z,98486.06
2022-10-05T15:32:52.602Z,98491.28
2022-10-05T15:36:09.601Z,98495.19
2022-10-05T15:39:09.771Z,98478.88
2022-10-05T15:41:58.871Z,98488.47
2022-10-05T15:44:50.460Z,98465.63
2022-10-05T15:47:45.717Z,98470.34
2022-10-05T15:50:37.717Z,98465.09
2022-10-05T15:53:46.378Z,98485.78
2022-10-05T15:56:44.488Z,98470.75
2022-10-05T15:59:36.613Z,98478.94
2022-10-05T16:02:23.885Z,98492.84
2022-10-05T16:05:37.666Z,98484.78
2022-10-05T16:08:34.954Z,98466.81
2022-10-05T16:11:21.140Z,98468.25
2022-10-05T16:14:24.226Z,98474.09
2022-10-05T16:17:37.555Z,98480.28
2022-10-05T16:20:29.226Z,98478.34
2022-10-05T16:23:47.389Z,98468.81
2022-10-05T16:26:33.962Z,98469.00
2022-10-05T16:29:54.230Z,98478.84
2022-10-05T16:32:34.987Z,98494.97
2022-10-05T16:35:56.891Z,98481.00
2022-10-05T16:39:49.817Z,98501.69
2022-10-05T16:42:47.265Z,98498.22
2022-10-05T16:45:44.400Z,98495.53
2022-10-05T16:48:39.046Z,98511.31
2022-10-05T16:51:51.194Z,98512.88
2022-10-05T17:00:16.100Z,98511.41
2022-10-05T17:03:09.995Z,98525.88
2022-10-05T17:06:26.025Z,98514.41
2022-10-05T17:09:28.865Z,98517.13
2022-10-05T17:16:45.987Z,98521.00
2022-10-05T17:19:21.379Z,98524.00
2022-10-05T17:22:04.701Z,98527.00
2022-10-05T17:24:59.596Z,98525.66
2022-10-05T17:29:05.013Z,98515.28
2022-10-05T17:32:33.852Z,98504.72
2022-10-05T17:35:00.667Z,98520.63
2022-10-05T17:37:27.332Z,98531.22
2022-10-05T17:40:28.333Z,98513.69
2022-10-05T17:43:33.940Z,98527.38
2022-10-05T17:46:30.322Z,98522.41
2022-10-05T17:49:02.159Z,98540.47
2022-10-05T17:51:58.070Z,98540.94
2022-10-05T17:55:15.730Z,98539.63
2022-10-05T17:58:23.984Z,98542.16
2022-10-05T18:01:26.459Z,98538.22
2022-10-05T18:03:56.418Z,98519.75
2022-10-05T18:06:26.390Z,98537.72
2022-10-05T18:14:00.056Z,98535.63
2022-10-05T18:17:16.227Z,98550.78
2022-10-05T18:20:31.939Z,98535.06
2022-10-05T18:23:03.291Z,98553.31
2022-10-05T18:26:05.174Z,98557.28
2022-10-05T18:28:31.993Z,98541.06
2022-10-05T18:31:17.587Z,98554.06
2022-10-05T18:34:11.826Z,98548.25
2022-10-05T18:37:07.326Z,98554.94
2022-10-05T18:40:23.434Z,98529.31
2022-10-05T18:43:35.687Z,98553.69
2022-10-05T18:46:35.468Z,98562.44
2022-10-05T18:49:20.869Z,98550.34
2022-10-05T18:52:05.420Z,98533.34
2022-10-05T18:55:15.427Z,98558.28
2022-10-05T18:58:22.136Z,98566.25
2022-10-05T19:01:10.218Z,98572.75
2022-10-05T19:03:49.557Z,98580.34
2022-10-05T19:06:30.556Z,98570.41
2022-10-05T19:09:19.405Z,98576.91
2022-10-05T19:12:11.393Z,98558.72
2022-10-05T19:15:06.954Z,98562.41
2022-10-05T19:18:18.593Z,98566.31
2022-10-05T19:21:12.961Z,98556.22
2022-10-05T19:24:06.254Z,98585.16
2022-10-05T19:26:56.405Z,98590.91
2022-10-05T19:29:45.544Z,98587.72
2022-10-05T19:32:37.079Z,98583.69
2022-10-05T19:35:28.065Z,98602.34
2022-10-05T19:38:54.436Z,98596.31
2022-10-05T19:41:31.176Z,98583.34
2022-10-05T19:44:24.564Z,98620.69
2022-10-05T19:47:12.319Z,98604.34
2022-10-05T19:50:18.353Z,98608.81
2022-10-05T19:52:49.827Z,98609.72
2022-10-05T19:55:45.633Z,98632.97
2022-10-05T19:58:39.846Z,98622.66
2022-10-05T20:01:33.115Z,98622.72
2022-10-05T20:04:16.677Z,98630.84
2022-10-05T20:06:55.485Z,98656.59
2022-10-05T20:09:28.764Z,98645.50
2022-10-05T20:11:57.800Z,98640.22
2022-10-05T20:14:33.119Z,98654.00
2022-10-05T20:17:45.790Z,98647.16
2022-10-05T20:20:44.540Z,98650.19
2022-10-05T20:23:25.636Z,98666.63
2022-10-05T20:26:21.481Z,98648.50
2022-10-05T20:28:48.634Z,98661.22
2022-10-05T20:31:23.413Z,98666.31
2022-10-05T20:34:25.491Z,98678.91
2022-10-05T20:36:52.305Z,98666.75
2022-10-05T20:39:22.740Z,98676.25
2022-10-05T20:41:55.303Z,98673.28
2022-10-05T20:44:30.642Z,98692.31
2022-10-05T20:47:05.568Z,98670.06
2022-10-05T20:49:45.952Z,98681.41
2022-10-05T20:52:29.808Z,98686.13
2022-10-05T20:55:17.629Z,98695.84
2022-10-05T20:57:48.804Z,98696.28
2022-10-05T21:00:15.878Z,98716.34
2022-10-05T21:02:54.020Z,98696.31
2022-10-05T21:05:23.288Z,98696.72
2022-10-05T21:07:52.626Z,98706.84
2022-10-05T21:10:28.504Z,98703.88
2022-10-05T21:13:02.890Z,98711.75
2022-10-05T21:15:29.792Z,98703.03
2022-10-05T21:17:56.677Z,98730.22
2022-10-05T21:20:29.552Z,98705.69
2022-10-05T21:23:05.074Z,98731.06
2022-10-05T21:25:56.342Z,98722.97
2022-10-05T21:28:29.778Z,98754.16
2022-10-05T21:30:59.072Z,98749.72
2022-10-05T21:33:26.574Z,98720.56
2022-10-05T21:35:53.675Z,98748.97
2022-10-05T21:38:41.393Z,98750.59
2022-10-05T21:41:27.173Z,98740.84
2022-10-05T21:44:30.785Z,98773.13
2022-10-05T21:47:19.965Z,98766.84
2022-10-05T21:50:09.865Z,98769.66
2022-10-05T21:52:37.662Z,98772.16
2022-10-05T21:55:23.713Z,98770.91
2022-10-05T21:58:10.379Z,98763.63
2022-10-05T22:00:43.278Z,98763.63
2022-10-05T22:06:01.523Z,98769.50
2022-10-05T22:08:35.808Z,98787.16
2022-10-05T22:11:21.499Z,98789.16
2022-10-05T22:13:56.432Z,98765.84
2022-10-05T22:20:45.089Z,98787.13
2022-10-05T22:23:14.599Z,98796.06
2022-10-05T22:25:46.688Z,98793.22
2022-10-05T22:28:19.082Z,98809.06
2022-10-05T22:31:14.920Z,98797.72
2022-10-05T22:33:53.837Z,98803.38
2022-10-05T22:36:22.798Z,98794.06
2022-10-05T22:39:00.595Z,98806.81
2022-10-05T22:41:33.222Z,98810.28
2022-10-05T22:44:10.734Z,98819.00
2022-10-05T22:46:37.505Z,98821.63
2022-10-05T22:49:04.197Z,98836.25
2022-10-05T22:51:39.000Z,98833.41
2022-10-05T22:54:29.323Z,98817.38
2022-10-05T22:57:17.380Z,98838.06
2022-10-05T23:00:04.291Z,98813.53
2022-10-05T23:02:43.928Z,98824.06
2022-10-05T23:05:17.309Z,98819.22
2022-10-05T23:07:53.679Z,98812.72
2022-10-05T23:10:29.856Z,98833.81
2022-10-05T23:13:01.276Z,98811.50
2022-10-05T23:15:28.222Z,98824.88
2022-10-05T23:17:58.875Z,98824.50
2022-10-05T23:20:27.896Z,98818.41
2022-10-05T23:23:01.041Z,98825.69
2022-10-05T23:25:30.179Z,98823.28
2022-10-05T23:27:56.932Z,98826.50
2022-10-05T23:34:40.911Z,98824.88
2022-10-05T23:37:11.427Z,98832.00
2022-10-05T23:39:38.134Z,98826.94
2022-10-05T23:42:21.795Z,98827.31
2022-10-05T23:45:00.166Z,98834.19
2022-10-05T23:47:29.850Z,98845.38
2022-10-05T23:50:03.050Z,98838.88
2022-10-05T23:52:30.093Z,98839.91
2022-10-05T23:55:11.877Z,98837.84
2022-10-05T23:57:40.920Z,98849.22
